createdAt,value
2019-05-29T00:00:46.773Z,0.00
2019-05-29T00:01:46.737Z,0.00
2019-05-29T00:02:47.526Z,0.00
2019-05-29T00:03:46.725Z,0.00
2019-05-29T00:04:46.711Z,0.00
2019-05-29T00:05:46.699Z,0.00
2019-05-29T00:06:47.335Z,0.00
2019-05-29T00:07:46.676Z,0.00
2019-05-29T00:08:46.794Z,0.00
2019-05-29T00:09:46.692Z,0.00
2019-05-29T00:10:46.774Z,0.00
2019-05-29T00:11:46.643Z,0.00
2019-05-29T00:12:46.627Z,0.00
2019-05-29T00:13:46.605Z,0.00
2019-05-29T00:14:46.635Z,0.00
2019-05-29T00:15:46.594Z,0.00
2019-05-29T00:16:46.590Z,0.00
2019-05-29T00:17:46.565Z,0.00
2019-05-29T00:18:46.562Z,0.00
2019-05-29T00:19:46.544Z,0.00
2019-05-29T00:20:46.597Z,0.00
2019-05-29T00:21:46.524Z,0.00
2019-05-29T00:22:46.523Z,0.00
2019-05-29T00:23:46.504Z,0.00
2019-05-29T00:24:46.505Z,0.00
2019-05-29T00:25:46.483Z,0.00
2019-05-29T00:26:46.511Z,0.00
2019-05-29T00:27:46.472Z,0.00
2019-05-29T00:28:46.461Z,0.00
2019-05-29T00:29:46.934Z,0.00
2019-05-29T00:30:46.433Z,0.00
2019-05-29T00:31:46.424Z,0.00
2019-05-29T00:32:46.454Z,0.00
2019-05-29T00:33:46.403Z,0.00
2019-05-29T00:34:46.393Z,0.00
2019-05-29T00:35:46.381Z,0.00
2019-05-29T00:36:46.373Z,0.00
2019-05-29T00:37:46.363Z,0.00
2019-05-29T00:38:46.419Z,0.00
2019-05-29T00:39:46.343Z,0.00
2019-05-29T00:40:46.341Z,0.00
2019-05-29T00:41:46.314Z,0.00
2019-05-29T00:42:46.303Z,0.00
2019-05-29T00:43:46.293Z,0.00
2019-05-29T00:44:46.331Z,0.00
2019-05-29T00:45:46.272Z,0.00
2019-05-29T00:46:46.270Z,0.00
2019-05-29T00:47:46.253Z,0.00
2019-05-29T00:48:46.251Z,0.00
2019-05-29T00:49:46.812Z,0.00
2019-05-29T00:50:46.272Z,0.00
2019-05-29T00:51:46.219Z,0.00
2019-05-29T00:52:46.202Z,0.00
2019-05-29T00:53:46.191Z,0.00
2019-05-29T00:54:46.872Z,0.00
2019-05-29T00:55:48.095Z,0.00
2019-05-29T00:56:46.673Z,0.00
2019-05-29T00:57:46.158Z,0.00
2019-05-29T00:58:46.142Z,0.00
2019-05-29T00:59:46.132Z,0.00
2019-05-29T01:00:46.160Z,0.00
2019-05-29T01:01:46.111Z,0.00
2019-05-29T01:02:46.157Z,0.00
2019-05-29T01:03:46.093Z,0.00
2019-05-29T01:04:46.080Z,0.00
2019-05-29T01:05:46.070Z,0.00
2019-05-29T01:06:46.081Z,0.00
2019-05-29T01:07:46.061Z,0.00
2019-05-29T01:08:46.104Z,0.00
2019-05-29T01:09:46.035Z,0.00
2019-05-29T01:10:46.032Z,0.00
2019-05-29T01:11:46.008Z,0.00
2019-05-29T01:12:45.999Z,0.00
2019-05-29T01:13:45.989Z,0.00
2019-05-29T01:14:50.177Z,0.00
2019-05-29T01:15:45.970Z,0.00
2019-05-29T01:16:46.076Z,0.00
2019-05-29T01:17:45.947Z,0.00
2019-05-29T01:18:45.937Z,0.00
2019-05-29T01:19:45.919Z,0.00
2019-05-29T01:20:45.946Z,0.00
2019-05-29T01:21:45.900Z,0.00
2019-05-29T01:22:45.891Z,0.00
2019-05-29T01:23:45.879Z,0.00
2019-05-29T01:24:45.876Z,0.00
2019-05-29T01:25:45.861Z,0.00
2019-05-29T01:26:45.889Z,0.00
2019-05-29T01:27:45.835Z,0.00
2019-05-29T01:28:45.828Z,0.00
2019-05-29T01:29:45.820Z,0.00
2019-05-29T01:30:45.809Z,0.00
2019-05-29T01:31:45.801Z,0.00
2019-05-29T01:32:46.619Z,0.00
2019-05-29T01:33:45.769Z,0.00
2019-05-29T01:34:45.769Z,0.00
2019-05-29T01:35:45.758Z,0.00
2019-05-29T01:36:45.740Z,0.00
2019-05-29T01:37:45.737Z,0.00
2019-05-29T01:38:45.765Z,0.00
2019-05-29T01:39:45.716Z,0.00
2019-05-29T01:40:45.698Z,0.00
2019-05-29T01:41:45.695Z,0.00
2019-05-29T01:42:45.689Z,0.00
2019-05-29T01:43:45.674Z,0.00
2019-05-29T01:44:45.711Z,0.00
2019-05-29T01:45:45.648Z,0.00
2019-05-29T01:46:45.637Z,0.00
2019-05-29T01:47:45.627Z,0.00
2019-05-29T01:48:45.617Z,0.00
2019-05-29T01:49:45.617Z,0.00
2019-05-29T01:50:45.678Z,0.00
2019-05-29T01:51:45.606Z,0.00
2019-05-29T01:52:45.730Z,0.00
2019-05-29T01:53:45.567Z,0.00
2019-05-29T01:54:45.556Z,0.00
2019-05-29T01:55:45.546Z,0.00
2019-05-29T01:56:45.588Z,0.00
2019-05-29T01:57:45.524Z,0.00
2019-05-29T01:58:45.514Z,0.00
2019-05-29T01:59:45.512Z,0.00
2019-05-29T02:02:25.830Z,0.00
2019-05-29T02:03:24.994Z,0.00
2019-05-29T02:04:24.977Z,0.00
2019-05-29T02:05:24.968Z,0.00
2019-05-29T02:06:24.960Z,0.00
2019-05-29T02:07:24.945Z,0.00
2019-05-29T02:08:25.292Z,0.00
2019-05-29T02:09:25.039Z,0.00
2019-05-29T02:10:24.909Z,0.00
2019-05-29T02:11:24.899Z,0.00
2019-05-29T02:12:24.889Z,0.00
2019-05-29T02:13:24.881Z,0.00
2019-05-29T02:14:24.981Z,0.00
2019-05-29T02:16:38.842Z,0.00
2019-05-29T02:17:38.688Z,0.00
2019-05-29T02:18:38.678Z,0.00
2019-05-29T02:19:38.670Z,0.00
2019-05-29T02:20:38.650Z,0.00
2019-05-29T02:21:38.638Z,0.00
2019-05-29T02:22:38.674Z,0.00
2019-05-29T02:23:38.630Z,0.00
2019-05-29T02:24:38.608Z,0.00
2019-05-29T02:25:38.607Z,0.00
2019-05-29T02:26:38.600Z,0.00
2019-05-29T02:27:38.577Z,0.00
2019-05-29T02:28:38.620Z,0.00
2019-05-29T02:29:38.556Z,0.00
2019-05-29T02:30:38.547Z,0.00
2019-05-29T02:31:38.540Z,0.00
2019-05-29T02:32:38.528Z,0.00
2019-05-29T02:33:38.518Z,0.00
2019-05-29T02:34:38.591Z,0.00
2019-05-29T02:35:38.501Z,0.00
2019-05-29T02:36:38.487Z,0.00
2019-05-29T02:37:38.477Z,0.00
2019-05-29T02:38:38.465Z,0.00
2019-05-29T02:39:38.457Z,0.00
2019-05-29T02:40:38.496Z,0.00
2019-05-29T02:41:38.435Z,0.00
2019-05-29T02:42:38.426Z,0.00
2019-05-29T02:43:38.413Z,0.00
2019-05-29T02:44:38.396Z,0.00
2019-05-29T02:45:53.812Z,0.00
2019-05-29T02:46:39.421Z,0.00
2019-05-29T02:47:38.371Z,0.00
2019-05-29T02:48:38.356Z,0.00
2019-05-29T02:49:39.015Z,0.00
2019-05-29T02:50:38.338Z,0.00
2019-05-29T02:51:38.334Z,0.00
2019-05-29T02:52:38.366Z,0.00
2019-05-29T02:53:38.313Z,0.00
2019-05-29T02:54:38.295Z,0.00
2019-05-29T02:55:38.285Z,0.00
2019-05-29T02:56:42.290Z,0.00
2019-05-29T02:57:39.104Z,0.00
2019-05-29T02:58:38.295Z,0.00
2019-05-29T02:59:38.243Z,0.00
2019-05-29T03:00:38.225Z,0.00
2019-05-29T03:01:38.223Z,0.00
2019-05-29T03:02:38.203Z,0.00
2019-05-29T03:03:39.699Z,0.00
2019-05-29T03:04:38.227Z,0.00
2019-05-29T03:05:38.176Z,0.00
2019-05-29T03:06:38.175Z,0.00
2019-05-29T03:07:38.153Z,0.00
2019-05-29T03:08:38.148Z,0.00
2019-05-29T03:09:38.164Z,0.00
2019-05-29T03:10:38.613Z,0.00
2019-05-29T03:11:38.106Z,0.00
2019-05-29T03:12:38.102Z,0.00
2019-05-29T03:13:38.084Z,0.00
2019-05-29T03:14:38.074Z,0.00
2019-05-29T03:15:38.078Z,0.00
2019-05-29T03:16:38.091Z,0.00
2019-05-29T03:17:38.044Z,0.00
2019-05-29T03:18:38.032Z,5.62
2019-05-29T03:19:38.064Z,5.62
2019-05-29T03:20:38.017Z,5.62
2019-05-29T03:21:38.006Z,5.62
2019-05-29T03:22:38.042Z,5.62
2019-05-29T03:23:38.003Z,5.62
2019-05-29T03:24:37.978Z,5.62
2019-05-29T03:25:37.958Z,5.62
2019-05-29T03:26:38.462Z,5.62
2019-05-29T03:27:38.520Z,5.62
2019-05-29T03:28:38.396Z,5.62
2019-05-29T03:29:38.527Z,5.62
2019-05-29T03:30:45.421Z,5.62
2019-05-29T03:31:46.607Z,5.62
2019-05-29T03:32:47.195Z,11.25
2019-05-29T03:33:47.736Z,11.25
2019-05-29T03:34:45.744Z,11.25
2019-05-29T03:35:47.114Z,11.25
2019-05-29T03:36:46.964Z,11.25
2019-05-29T03:37:38.985Z,11.25
2019-05-29T03:38:38.579Z,11.25
2019-05-29T03:39:38.600Z,11.25
2019-05-29T03:40:38.708Z,11.25
2019-05-29T03:41:39.012Z,11.25
2019-05-29T03:42:38.976Z,11.25
2019-05-29T03:43:38.807Z,16.88
2019-05-29T03:44:38.699Z,16.88
2019-05-29T03:45:38.749Z,16.88
2019-05-29T03:46:44.613Z,16.88
2019-05-29T03:47:38.719Z,16.88
2019-05-29T03:48:38.539Z,16.88
2019-05-29T03:49:37.704Z,16.88
2019-05-29T03:50:38.333Z,16.88
2019-05-29T03:51:38.989Z,16.88
2019-05-29T03:52:38.966Z,16.88
2019-05-29T03:53:38.510Z,16.88
2019-05-29T03:54:38.767Z,22.50
2019-05-29T03:55:38.038Z,22.50
2019-05-29T03:56:38.916Z,22.50
2019-05-29T03:57:38.301Z,22.50
2019-05-29T03:58:37.912Z,22.50
2019-05-29T03:59:37.647Z,22.50
2019-05-29T04:00:45.555Z,22.50
2019-05-29T04:01:38.571Z,22.50
2019-05-29T04:02:38.407Z,22.50
2019-05-29T04:03:38.301Z,22.50
2019-05-29T04:04:38.222Z,22.50
2019-05-29T04:05:38.025Z,22.50
2019-05-29T04:06:37.736Z,28.12
2019-05-29T04:07:38.321Z,28.12
2019-05-29T04:08:38.468Z,28.12
2019-05-29T04:09:37.539Z,28.12
2019-05-29T04:10:39.479Z,28.12
2019-05-29T04:11:38.092Z,28.12
2019-05-29T04:12:38.176Z,28.12
2019-05-29T04:13:38.847Z,28.12
2019-05-29T04:14:37.853Z,28.12
2019-05-29T04:15:38.579Z,28.12
2019-05-29T04:16:58.123Z,28.12
2019-05-29T04:17:38.394Z,28.12
2019-05-29T04:18:38.156Z,33.75
2019-05-29T04:19:38.654Z,33.75
2019-05-29T04:20:38.717Z,33.75
2019-05-29T04:21:38.613Z,33.75
2019-05-29T04:22:38.341Z,33.75
2019-05-29T04:23:38.295Z,33.75
2019-05-29T04:24:38.219Z,33.75
2019-05-29T04:25:41.972Z,33.75
2019-05-29T04:26:38.327Z,33.75
2019-05-29T04:27:38.435Z,33.75
2019-05-29T04:28:38.882Z,33.75
2019-05-29T04:29:38.425Z,39.38
2019-05-29T04:30:38.994Z,39.38
2019-05-29T04:31:38.401Z,39.38
2019-05-29T04:32:38.642Z,39.38
2019-05-29T04:33:38.805Z,39.38
2019-05-29T04:34:37.999Z,39.38
2019-05-29T04:35:39.533Z,39.38
2019-05-29T04:36:38.864Z,45.00
2019-05-29T04:37:39.433Z,45.00
2019-05-29T04:38:38.452Z,45.00
2019-05-29T04:39:38.939Z,45.00
2019-05-29T04:40:37.883Z,45.00
2019-05-29T04:41:37.710Z,45.00
2019-05-29T04:42:38.113Z,45.00
2019-05-29T04:43:37.568Z,50.62
2019-05-29T04:44:38.885Z,50.62
2019-05-29T04:45:39.270Z,50.62
2019-05-29T04:46:38.437Z,50.62
2019-05-29T04:47:37.437Z,50.62
2019-05-29T04:48:38.243Z,56.25
2019-05-29T04:49:37.970Z,56.25
2019-05-29T04:50:38.690Z,56.25
2019-05-29T04:51:37.405Z,56.25
2019-05-29T04:52:37.841Z,56.25
2019-05-29T04:53:37.786Z,56.25
2019-05-29T04:54:37.741Z,61.88
2019-05-29T04:55:37.075Z,61.88
2019-05-29T04:56:37.067Z,61.88
2019-05-29T04:57:37.268Z,61.88
2019-05-29T04:58:37.056Z,61.88
2019-05-29T04:59:37.165Z,61.88
2019-05-29T05:00:37.273Z,67.50
2019-05-29T05:01:37.189Z,67.50
2019-05-29T05:02:37.344Z,67.50
2019-05-29T05:03:37.223Z,67.50
2019-05-29T05:04:37.307Z,67.50
2019-05-29T05:05:37.613Z,67.50
2019-05-29T05:06:37.372Z,73.12
2019-05-29T05:07:37.429Z,73.12
2019-05-29T05:08:37.475Z,73.12
2019-05-29T05:09:37.569Z,73.12
2019-05-29T05:10:37.784Z,73.12
2019-05-29T05:11:37.596Z,73.12
2019-05-29T05:12:37.817Z,78.75
2019-05-29T05:13:37.709Z,78.75
2019-05-29T05:14:37.784Z,78.75
2019-05-29T05:15:37.875Z,78.75
2019-05-29T05:16:37.831Z,78.75
2019-05-29T05:17:37.933Z,78.75
2019-05-29T05:18:37.871Z,78.75
2019-05-29T05:19:37.991Z,84.38
2019-05-29T05:20:38.126Z,84.38
2019-05-29T05:21:36.702Z,84.38
2019-05-29T05:22:36.688Z,84.38
2019-05-29T05:23:36.678Z,84.38
2019-05-29T05:24:36.668Z,84.38
2019-05-29T05:25:36.668Z,84.38
2019-05-29T05:26:36.694Z,90.00
2019-05-29T05:27:36.638Z,90.00
2019-05-29T05:28:36.631Z,90.00
2019-05-29T05:29:36.699Z,90.00
2019-05-29T05:30:36.771Z,90.00
2019-05-29T05:31:36.587Z,90.00
2019-05-29T05:32:36.897Z,90.00
2019-05-29T05:33:37.073Z,90.00
2019-05-29T05:34:36.887Z,90.00
2019-05-29T05:35:36.808Z,90.00
2019-05-29T05:36:36.807Z,90.00
2019-05-29T05:37:36.984Z,90.00
2019-05-29T05:38:36.996Z,95.62
2019-05-29T05:39:37.336Z,95.62
2019-05-29T05:40:41.368Z,95.62
2019-05-29T05:41:37.618Z,95.62
2019-05-29T05:42:37.122Z,101.25
2019-05-29T05:43:36.917Z,101.25
2019-05-29T05:44:37.049Z,101.25
2019-05-29T05:45:37.097Z,101.25
2019-05-29T05:46:37.151Z,101.25
2019-05-29T05:47:50.196Z,101.25
2019-05-29T05:48:37.448Z,106.88
2019-05-29T05:49:37.314Z,106.88
2019-05-29T05:50:37.299Z,106.88
2019-05-29T05:51:39.683Z,106.88
2019-05-29T05:52:37.536Z,106.88
2019-05-29T05:53:37.466Z,106.88
2019-05-29T05:54:37.581Z,106.88
2019-05-29T05:55:37.696Z,106.88
2019-05-29T05:56:37.614Z,106.88
2019-05-29T05:57:37.636Z,106.88
2019-05-29T05:58:37.728Z,112.50
2019-05-29T05:59:36.295Z,112.50
2019-05-29T06:00:36.285Z,112.50
2019-05-29T06:01:36.353Z,112.50
2019-05-29T06:02:36.297Z,112.50
2019-05-29T06:03:36.255Z,112.50
2019-05-29T06:04:36.234Z,118.12
2019-05-29T06:05:36.408Z,118.12
2019-05-29T06:06:36.324Z,118.12
2019-05-29T06:07:36.219Z,118.12
2019-05-29T06:08:36.323Z,118.12
2019-05-29T06:09:36.218Z,118.12
2019-05-29T06:10:36.217Z,118.12
2019-05-29T06:11:36.214Z,118.12
2019-05-29T06:12:36.535Z,118.12
2019-05-29T06:13:36.340Z,118.12
2019-05-29T06:14:36.507Z,118.12
2019-05-29T06:15:36.484Z,118.12
2019-05-29T06:16:36.466Z,118.12
2019-05-29T06:17:36.567Z,118.12
2019-05-29T06:18:36.539Z,123.75
2019-05-29T06:19:36.740Z,123.75
2019-05-29T06:20:36.754Z,123.75
2019-05-29T06:21:36.713Z,123.75
2019-05-29T06:22:36.899Z,123.75
2019-05-29T06:23:36.945Z,123.75
2019-05-29T06:24:37.177Z,123.75
2019-05-29T06:25:36.974Z,123.75
2019-05-29T06:26:36.780Z,123.75
2019-05-29T06:27:37.103Z,123.75
2019-05-29T06:28:37.076Z,123.75
2019-05-29T06:29:37.126Z,123.75
2019-05-29T06:30:36.668Z,123.75
2019-05-29T06:31:37.165Z,123.75
2019-05-29T06:32:37.271Z,123.75
2019-05-29T06:33:35.930Z,129.38
2019-05-29T06:34:35.928Z,129.38
2019-05-29T06:35:35.979Z,123.75
2019-05-29T06:36:37.904Z,129.38
2019-05-29T06:37:35.889Z,129.38
2019-05-29T06:38:35.921Z,129.38
2019-05-29T06:39:35.916Z,129.38
2019-05-29T06:40:36.414Z,129.38
2019-05-29T06:41:35.840Z,129.38
2019-05-29T06:42:35.831Z,129.38
2019-05-29T06:43:35.845Z,129.38
2019-05-29T06:44:39.247Z,129.38
2019-05-29T06:45:35.890Z,129.38
2019-05-29T06:46:36.148Z,123.75
2019-05-29T06:47:36.437Z,129.38
2019-05-29T06:48:44.827Z,129.38
2019-05-29T06:49:38.000Z,129.38
2019-05-29T06:50:37.326Z,129.38
2019-05-29T06:51:35.776Z,129.38
2019-05-29T06:52:35.736Z,129.38
2019-05-29T06:53:35.832Z,135.00
2019-05-29T06:54:35.807Z,135.00
2019-05-29T06:55:35.893Z,135.00
2019-05-29T06:56:35.729Z,135.00
2019-05-29T06:57:36.160Z,129.38
2019-05-29T06:58:35.947Z,135.00
2019-05-29T06:59:36.117Z,135.00
2019-05-29T07:00:37.359Z,135.00
2019-05-29T07:01:37.313Z,140.62
2019-05-29T07:02:36.368Z,140.62
2019-05-29T07:03:35.698Z,140.62
2019-05-29T07:04:36.238Z,140.62
2019-05-29T07:05:35.654Z,140.62
2019-05-29T07:06:36.531Z,135.00
2019-05-29T07:07:36.027Z,146.25
2019-05-29T07:08:40.077Z,146.25
2019-05-29T07:09:36.853Z,140.62
2019-05-29T07:10:36.351Z,90.00
2019-05-29T07:11:35.518Z,151.88
2019-05-29T07:12:36.271Z,151.88
2019-05-29T07:13:37.717Z,151.88
2019-05-29T07:14:36.490Z,146.25
2019-05-29T07:15:36.487Z,157.50
2019-05-29T07:16:45.313Z,163.12
2019-05-29T07:17:36.464Z,163.12
2019-05-29T07:18:36.573Z,163.12
2019-05-29T07:19:48.977Z,174.38
2019-05-29T07:20:36.566Z,185.62
2019-05-29T07:21:36.883Z,213.75
2019-05-29T07:22:37.019Z,225.00
2019-05-29T07:23:50.256Z,230.62
2019-05-29T07:24:38.772Z,247.50
2019-05-29T07:25:36.866Z,253.12
2019-05-29T07:26:38.792Z,258.75
2019-05-29T07:27:36.710Z,270.00
2019-05-29T07:28:36.826Z,264.38
2019-05-29T07:29:35.347Z,270.00
2019-05-29T07:30:35.328Z,270.00
2019-05-29T07:31:35.363Z,264.38
2019-05-29T07:32:35.346Z,281.25
2019-05-29T07:33:35.490Z,281.25
2019-05-29T07:34:51.361Z,281.25
2019-05-29T07:35:37.191Z,286.88
2019-05-29T07:36:35.505Z,292.50
2019-05-29T07:37:37.537Z,292.50
2019-05-29T07:38:35.248Z,298.12
2019-05-29T07:39:35.215Z,253.12
2019-05-29T07:40:35.943Z,258.75
2019-05-29T07:41:35.199Z,202.50
2019-05-29T07:42:35.235Z,281.25
2019-05-29T07:43:35.242Z,315.00
2019-05-29T07:44:38.046Z,320.62
2019-05-29T07:45:35.332Z,241.88
2019-05-29T07:46:35.175Z,315.00
2019-05-29T07:47:35.925Z,326.25
2019-05-29T07:48:36.002Z,185.62
2019-05-29T07:49:39.069Z,298.12
2019-05-29T07:50:38.020Z,292.50
2019-05-29T07:51:35.099Z,146.25
2019-05-29T07:52:35.479Z,191.25
2019-05-29T07:53:36.355Z,281.25
2019-05-29T07:54:36.559Z,281.25
2019-05-29T07:55:38.309Z,286.88
2019-05-29T07:56:38.994Z,298.12
2019-05-29T07:57:36.963Z,303.75
2019-05-29T07:58:35.975Z,303.75
2019-05-29T07:59:35.374Z,303.75
2019-05-29T08:00:55.664Z,303.75
2019-05-29T08:01:38.674Z,298.12
2019-05-29T08:02:35.425Z,298.12
2019-05-29T08:03:35.456Z,298.12
2019-05-29T08:04:34.964Z,309.38
2019-05-29T08:05:34.946Z,315.00
2019-05-29T08:06:35.191Z,320.62
2019-05-29T08:07:37.313Z,320.62
2019-05-29T08:08:36.829Z,315.00
2019-05-29T08:09:35.911Z,320.62
2019-05-29T08:10:35.526Z,320.62
2019-05-29T08:11:35.767Z,320.62
2019-05-29T08:12:35.399Z,337.50
2019-05-29T08:13:35.433Z,343.12
2019-05-29T08:14:35.665Z,258.75
2019-05-29T08:15:49.142Z,343.12
2019-05-29T08:16:36.287Z,360.00
2019-05-29T08:17:35.846Z,343.12
2019-05-29T08:18:35.281Z,343.12
2019-05-29T08:19:35.624Z,337.50
2019-05-29T08:20:34.826Z,337.50
2019-05-29T08:21:34.776Z,348.75
2019-05-29T08:22:35.093Z,286.88
2019-05-29T08:23:34.747Z,331.88
2019-05-29T08:24:35.488Z,337.50
2019-05-29T08:25:34.807Z,343.12
2019-05-29T08:26:35.640Z,337.50
2019-05-29T08:27:37.162Z,337.50
2019-05-29T08:28:36.547Z,337.50
2019-05-29T08:29:36.178Z,337.50
2019-05-29T08:30:35.345Z,337.50
2019-05-29T08:31:36.474Z,331.88
2019-05-29T08:32:34.809Z,337.50
2019-05-29T08:33:34.970Z,343.12
2019-05-29T08:34:34.650Z,393.75
2019-05-29T08:35:36.083Z,326.25
2019-05-29T08:36:34.853Z,326.25
2019-05-29T08:37:35.748Z,371.25
2019-05-29T08:38:35.754Z,168.75
2019-05-29T08:39:37.040Z,264.38
2019-05-29T08:40:37.481Z,371.25
2019-05-29T08:41:34.876Z,376.88
2019-05-29T08:42:34.555Z,382.50
2019-05-29T08:43:34.700Z,382.50
2019-05-29T08:44:35.386Z,382.50
2019-05-29T08:45:34.984Z,382.50
2019-05-29T08:46:34.557Z,388.12
2019-05-29T08:47:35.014Z,388.12
2019-05-29T08:48:35.573Z,388.12
2019-05-29T08:49:36.258Z,388.12
2019-05-29T08:50:35.917Z,399.38
2019-05-29T08:51:34.875Z,405.00
2019-05-29T08:52:36.550Z,416.25
2019-05-29T08:53:35.199Z,410.62
2019-05-29T08:54:34.435Z,405.00
2019-05-29T08:55:35.215Z,410.62
2019-05-29T08:56:34.456Z,405.00
2019-05-29T08:57:34.399Z,405.00
2019-05-29T08:58:37.212Z,410.62
2019-05-29T08:59:34.864Z,399.38
2019-05-29T09:00:34.592Z,388.12
2019-05-29T09:01:34.425Z,405.00
2019-05-29T09:02:35.805Z,410.62
2019-05-29T09:03:34.335Z,388.12
2019-05-29T09:04:36.070Z,303.75
2019-05-29T09:05:34.314Z,376.88
2019-05-29T09:06:35.458Z,427.50
2019-05-29T09:07:35.766Z,427.50
2019-05-29T09:08:34.279Z,438.75
2019-05-29T09:09:34.271Z,450.00
2019-05-29T09:10:35.036Z,196.88
2019-05-29T09:11:34.435Z,354.38
2019-05-29T09:12:34.247Z,450.00
2019-05-29T09:13:34.335Z,472.50
2019-05-29T09:14:35.272Z,472.50
2019-05-29T09:15:35.051Z,466.88
2019-05-29T09:16:34.810Z,461.25
2019-05-29T09:17:37.058Z,455.62
2019-05-29T09:18:34.180Z,455.62
2019-05-29T09:19:34.215Z,466.88
2019-05-29T09:21:00.036Z,483.75
2019-05-29T09:21:35.162Z,489.38
2019-05-29T09:22:34.544Z,506.25
2019-05-29T09:23:34.702Z,506.25
2019-05-29T09:24:34.108Z,511.88
2019-05-29T09:25:34.192Z,466.88
2019-05-29T09:26:34.133Z,281.25
2019-05-29T09:27:34.114Z,281.25
2019-05-29T09:28:34.080Z,500.62
2019-05-29T09:29:34.066Z,500.62
2019-05-29T09:30:35.277Z,225.00
2019-05-29T09:31:34.391Z,208.12
2019-05-29T09:32:50.616Z,191.25
2019-05-29T09:33:37.673Z,191.25
2019-05-29T09:34:35.549Z,191.25
2019-05-29T09:35:35.003Z,191.25
2019-05-29T09:36:34.479Z,416.25
2019-05-29T09:37:35.211Z,433.12
2019-05-29T09:38:34.196Z,427.50
2019-05-29T09:39:35.067Z,427.50
2019-05-29T09:40:34.656Z,416.25
2019-05-29T09:41:34.948Z,410.62
2019-05-29T09:42:33.944Z,416.25
2019-05-29T09:43:34.770Z,421.88
2019-05-29T09:44:39.248Z,421.88
2019-05-29T09:45:35.234Z,427.50
2019-05-29T09:46:34.143Z,421.88
2019-05-29T09:47:35.206Z,416.25
2019-05-29T09:48:48.879Z,410.62
2019-05-29T09:49:36.041Z,399.38
2019-05-29T09:50:49.568Z,421.88
2019-05-29T09:51:34.828Z,421.88
2019-05-29T09:52:33.807Z,421.88
2019-05-29T09:53:35.056Z,427.50
2019-05-29T09:54:33.920Z,433.12
2019-05-29T09:55:33.822Z,433.12
2019-05-29T09:56:33.758Z,433.12
2019-05-29T09:57:33.781Z,433.12
2019-05-29T09:58:33.757Z,433.12
2019-05-29T09:59:34.469Z,438.75
2019-05-29T10:00:33.717Z,444.38
2019-05-29T10:01:33.788Z,444.38
2019-05-29T10:02:33.689Z,433.12
2019-05-29T10:03:33.697Z,253.12
2019-05-29T10:04:33.705Z,444.38
2019-05-29T10:05:33.694Z,450.00
2019-05-29T10:06:33.707Z,455.62
2019-05-29T10:07:33.684Z,230.62
2019-05-29T10:08:33.638Z,450.00
2019-05-29T10:09:33.701Z,455.62
2019-05-29T10:10:34.089Z,455.62
2019-05-29T10:11:34.017Z,455.62
2019-05-29T10:12:33.646Z,455.62
2019-05-29T10:13:33.648Z,438.75
2019-05-29T10:14:33.720Z,421.88
2019-05-29T10:15:33.946Z,472.50
2019-05-29T10:16:35.043Z,483.75
2019-05-29T10:17:33.588Z,489.38
2019-05-29T10:18:33.557Z,500.62
2019-05-29T10:19:33.723Z,455.62
2019-05-29T10:20:36.304Z,444.38
2019-05-29T10:21:40.597Z,354.38
2019-05-29T10:22:34.528Z,433.12
2019-05-29T10:23:33.510Z,517.50
2019-05-29T10:24:33.662Z,523.12
2019-05-29T10:25:34.180Z,523.12
2019-05-29T10:26:34.434Z,528.75
2019-05-29T10:27:34.264Z,528.75
2019-05-29T10:28:50.287Z,534.38
2019-05-29T10:29:39.404Z,540.00
2019-05-29T10:30:34.659Z,545.62
2019-05-29T10:31:34.691Z,556.88
2019-05-29T10:32:34.469Z,551.25
2019-05-29T10:33:33.763Z,545.62
2019-05-29T10:34:34.262Z,405.00
2019-05-29T10:35:34.477Z,540.00
2019-05-29T10:36:33.990Z,450.00
2019-05-29T10:37:34.297Z,551.25
2019-05-29T10:38:34.048Z,556.88
2019-05-29T10:39:34.509Z,540.00
2019-05-29T10:40:33.943Z,534.38
2019-05-29T10:41:34.400Z,540.00
2019-05-29T10:42:34.524Z,551.25
2019-05-29T10:43:34.887Z,545.62
2019-05-29T10:44:33.820Z,275.62
2019-05-29T10:45:34.729Z,258.75
2019-05-29T10:46:33.673Z,247.50
2019-05-29T10:47:34.171Z,247.50
2019-05-29T10:48:36.602Z,241.88
2019-05-29T10:49:34.313Z,241.88
2019-05-29T10:50:33.891Z,236.25
2019-05-29T10:51:33.184Z,241.88
2019-05-29T10:52:33.865Z,247.50
2019-05-29T10:53:33.171Z,253.12
2019-05-29T10:54:33.180Z,258.75
2019-05-29T10:55:33.216Z,264.38
2019-05-29T10:56:33.154Z,253.12
2019-05-29T10:57:35.246Z,230.62
2019-05-29T10:58:47.938Z,219.38
2019-05-29T10:59:34.613Z,219.38
2019-05-29T11:00:38.009Z,213.75
2019-05-29T11:01:34.960Z,202.50
2019-05-29T11:02:34.513Z,202.50
2019-05-29T11:03:34.444Z,202.50
2019-05-29T11:04:36.288Z,202.50
2019-05-29T11:05:33.032Z,202.50
2019-05-29T11:06:33.775Z,208.12
2019-05-29T11:07:36.189Z,225.00
2019-05-29T11:08:34.264Z,230.62
2019-05-29T11:09:44.105Z,236.25
2019-05-29T11:10:35.359Z,247.50
2019-05-29T11:11:34.780Z,270.00
2019-05-29T11:12:33.332Z,309.38
2019-05-29T11:13:33.792Z,585.00
2019-05-29T11:14:34.311Z,573.75
2019-05-29T11:15:33.482Z,562.50
2019-05-29T11:16:33.660Z,551.25
2019-05-29T11:17:33.308Z,551.25
2019-05-29T11:18:34.325Z,545.62
2019-05-29T11:19:34.285Z,545.62
2019-05-29T11:20:33.305Z,545.62
2019-05-29T11:21:32.853Z,528.75
2019-05-29T11:22:34.444Z,517.50
2019-05-29T11:23:33.490Z,511.88
2019-05-29T11:24:36.852Z,517.50
2019-05-29T11:25:35.612Z,523.12
2019-05-29T11:26:34.913Z,523.12
2019-05-29T11:27:36.120Z,528.75
2019-05-29T11:28:40.672Z,528.75
2019-05-29T11:29:40.391Z,528.75
2019-05-29T11:30:32.754Z,540.00
2019-05-29T11:31:32.814Z,545.62
2019-05-29T11:32:32.762Z,540.00
2019-05-29T11:33:32.736Z,540.00
2019-05-29T11:34:33.591Z,528.75
2019-05-29T11:35:33.454Z,461.25
2019-05-29T11:36:34.498Z,618.75
2019-05-29T11:37:36.990Z,573.75
2019-05-29T11:38:36.432Z,326.25
2019-05-29T11:39:34.663Z,534.38
2019-05-29T11:40:38.550Z,298.12
2019-05-29T11:41:35.354Z,360.00
2019-05-29T11:42:33.574Z,241.88
2019-05-29T11:43:35.259Z,247.50
2019-05-29T11:44:32.631Z,258.75
2019-05-29T11:45:35.504Z,506.25
2019-05-29T11:46:33.121Z,596.25
2019-05-29T11:47:33.024Z,590.62
2019-05-29T11:48:32.641Z,590.62
2019-05-29T11:49:33.255Z,579.38
2019-05-29T11:50:32.819Z,596.25
2019-05-29T11:51:33.354Z,601.88
2019-05-29T11:52:42.787Z,607.50
2019-05-29T11:53:33.542Z,641.25
2019-05-29T11:54:32.505Z,399.38
2019-05-29T11:55:32.630Z,450.00
2019-05-29T11:56:32.489Z,309.38
2019-05-29T11:57:33.192Z,247.50
2019-05-29T11:58:33.475Z,208.12
2019-05-29T11:59:33.187Z,191.25
2019-05-29T12:00:33.261Z,191.25
2019-05-29T12:01:49.008Z,202.50
2019-05-29T12:02:34.054Z,208.12
2019-05-29T12:03:33.870Z,202.50
2019-05-29T12:04:33.566Z,202.50
2019-05-29T12:05:32.876Z,202.50
2019-05-29T12:06:38.067Z,213.75
2019-05-29T12:07:34.208Z,230.62
2019-05-29T12:08:32.900Z,241.88
2019-05-29T12:09:34.259Z,275.62
2019-05-29T12:10:33.266Z,382.50
2019-05-29T12:11:34.436Z,793.12
2019-05-29T12:12:33.973Z,1282.50
2019-05-29T12:13:33.196Z,1299.38
2019-05-29T12:14:33.367Z,1389.38
2019-05-29T12:15:32.708Z,1378.12
2019-05-29T12:16:32.294Z,1400.62
2019-05-29T12:17:32.277Z,1445.62
2019-05-29T12:18:32.436Z,1400.62
2019-05-29T12:19:32.546Z,1383.75
2019-05-29T12:20:32.325Z,1395.00
2019-05-29T12:21:32.975Z,286.88
2019-05-29T12:22:32.230Z,680.62
2019-05-29T12:23:35.535Z,1479.38
2019-05-29T12:24:35.412Z,1389.38
2019-05-29T12:25:32.269Z,1541.25
2019-05-29T12:26:32.194Z,1552.50
2019-05-29T12:27:35.445Z,1563.75
2019-05-29T12:28:32.177Z,1552.50
2019-05-29T12:29:32.581Z,1496.25
2019-05-29T12:30:35.763Z,1530.00
2019-05-29T12:31:35.977Z,1580.62
2019-05-29T12:32:32.693Z,1552.50
2019-05-29T12:33:34.487Z,1552.50
2019-05-29T12:34:33.054Z,1591.88
2019-05-29T12:35:32.159Z,1603.12
2019-05-29T12:36:32.092Z,1597.50
2019-05-29T12:37:32.717Z,1659.38
2019-05-29T12:38:33.281Z,1653.75
2019-05-29T12:39:35.075Z,1631.25
2019-05-29T12:40:32.643Z,1636.88
2019-05-29T12:41:34.025Z,1625.62
2019-05-29T12:42:32.038Z,1603.12
2019-05-29T12:43:32.056Z,1631.25
2019-05-29T12:44:32.041Z,1653.75
2019-05-29T12:45:32.861Z,1631.25
2019-05-29T12:46:32.818Z,1586.25
2019-05-29T12:47:32.092Z,1569.38